Time;durP1;ratioP1;P1;durP2;ratioP2;P2;SDS_P1;SDS_P2;PMS_P1;PMS_P2;Temp;Humidity;BMP_temperature;BMP_pressure;BME280_temperature;BME280_humidity;BME280_pressure;Samples;Min_cycle;Max_cycle;Signal;HPM_P1;HPM_P2
2022/03/17 00:00:28;;;;;;;;;;;;;;;7.61;63.90;93270.38;2040986;70;20139;-73
2022/03/17 00:02:54;;;;;;;;;;;;;;;7.73;62.83;93269.88;2040579;70;20075;-72
2022/03/17 00:05:19;;;;;;;;;;;;;;;7.70;63.27;93271.78;2040510;70;20130;-73
2022/03/17 00:07:44;;;;;;;;;;;;;;;7.73;62.86;93267.81;2041973;70;20044;-74
2022/03/17 00:10:11;;;;;;;;;;;;;;;7.47;64.22;93257.28;2041150;70;20059;-73
2022/03/17 00:12:37;;;;;;;;;;;;;;;7.69;61.62;93263.94;2041206;70;20131;-72
2022/03/17 00:15:04;;;;;;;;;;;;;;;7.56;63.22;93262.22;2041143;70;20071;-72
2022/03/17 00:17:30;;;;;;;;;;;;;;;7.57;62.37;93260.91;2041012;70;20091;-73
2022/03/17 00:19:55;;;;;;;;;;;;;;;7.50;63.28;93259.66;2040377;70;20048;-73
2022/03/17 00:22:21;;;;;;;;;;;;;;;7.53;63.01;93252.91;2041101;70;20067;-73
2022/03/17 00:24:48;;;;;;;;;;;;;;;7.61;61.88;93252.84;2040982;70;20841;-72
2022/03/17 00:27:13;;;;;;;;;;;;;;;7.64;62.19;93254.47;2039498;70;20107;-73
2022/03/17 00:29:39;;;;;;;;;;;;;;;7.50;62.86;93248.47;2039727;70;20059;-73
2022/03/17 00:32:05;;;;;;;;;;;;;;;7.58;62.02;93242.78;2040429;70;20488;-73
2022/03/17 00:34:31;;;;;;;;;;;;;;;7.42;64.42;93239.41;2041049;70;20500;-73
2022/03/17 00:36:57;;;;;;;;;;;;;;;7.41;64.25;93235.13;2040891;70;20181;-73
2022/03/17 00:39:22;;;;;;;;;;;;;;;7.52;63.64;93239.50;2041119;70;20047;-73
2022/03/17 00:41:48;;;;;;;;;;;;;;;7.55;63.60;93230.66;2040876;70;20428;-73
2022/03/17 00:44:14;;;;;;;;;;;;;;;7.65;63.75;93239.13;2040678;70;20142;-73
2022/03/17 00:46:40;;;;;;;;;;;;;;;7.06;66.59;93242.78;2040884;70;20058;-73
2022/03/17 00:49:05;;;;;;;;;;;;;;;7.26;65.07;93240.91;2040876;70;20071;-73
2022/03/17 00:51:31;;;;;;;;;;;;;;;7.26;65.12;93238.84;2040901;70;20493;-74
2022/03/17 00:53:56;;;;;;;;;;;;;;;7.35;65.09;93243.03;2040231;70;20054;-74
2022/03/17 00:56:22;;;;;;;;;;;;;;;7.34;65.06;93233.91;2041026;70;20051;-74
2022/03/17 00:58:48;;;;;;;;;;;;;;;7.49;63.44;93235.78;2040718;70;20619;-73
2022/03/17 01:01:15;;;;;;;;;;;;;;;7.37;64.52;93237.59;2040092;70;20047;-73
2022/03/17 01:03:41;;;;;;;;;;;;;;;7.22;65.56;93221.69;2040938;70;20107;-73
2022/03/17 01:06:06;;;;;;;;;;;;;;;7.45;63.79;93213.03;2040102;70;20067;-73
2022/03/17 01:08:32;;;;;;;;;;;;;;;7.40;63.22;93214.03;2040018;70;20063;-73
2022/03/17 01:10:58;;;;;;;;;;;;;;;6.46;68.82;93219.63;2040811;70;20206;-73
2022/03/17 01:13:23;;;;;;;;;;;;;;;7.08;65.62;93221.28;2040948;70;20082;-73
2022/03/17 01:15:49;;;;;;;;;;;;;;;7.24;65.53;93215.50;2043114;70;20051;-72
2022/03/17 01:18:14;;;;;;;;;;;;;;;7.44;63.97;93213.63;2040758;70;20059;-71
2022/03/17 01:20:41;;;;;;;;;;;;;;;7.27;65.07;93211.56;2040604;70;20429;-72
2022/03/17 01:23:08;;;;;;;;;;;;;;;7.64;61.96;93215.97;2040708;70;20155;-72
2022/03/17 01:25:33;;;;;;;;;;;;;;;7.46;62.80;93206.09;2040980;70;20184;-72
2022/03/17 01:27:59;;;;;;;;;;;;;;;7.37;63.76;93204.72;2040965;70;20102;-72
2022/03/17 01:30:25;;;;;;;;;;;;;;;7.35;63.61;93201.75;2040757;70;20054;-72
2022/03/17 01:32:50;;;;;;;;;;;;;;;7.24;64.37;93193.13;2040294;70;20118;-73
2022/03/17 01:35:16;;;;;;;;;;;;;;;7.18;64.58;93189.84;2039175;70;20044;-73
2022/03/17 01:37:41;;;;;;;;;;;;;;;7.23;64.73;93186.78;2039408;70;20048;-72
2022/03/17 01:40:08;;;;;;;;;;;;;;;7.24;64.37;93184.72;2040923;70;20058;-72
2022/03/17 01:42:34;;;;;;;;;;;;;;;7.25;65.10;93189.75;2040480;70;20440;-72
2022/03/17 01:44:59;;;;;;;;;;;;;;;7.34;64.69;93189.09;2040687;70;20515;-72
2022/03/17 01:47:28;;;;;;;;;;;;;;;7.35;64.37;93184.22;2041209;70;20118;-72
2022/03/17 01:49:58;;;;;;;;;;;;;;;7.30;65.75;93180.34;2040882;70;20166;-73
2022/03/17 01:52:24;;;;;;;;;;;;;;;7.42;63.59;93191.03;2040635;70;20097;-73
2022/03/17 01:54:50;;;;;;;;;;;;;;;7.41;63.97;93192.38;2040574;70;20043;-73
2022/03/17 01:57:15;;;;;;;;;;;;;;;7.28;65.34;93193.44;2040700;70;20052;-73
2022/03/17 01:59:41;;;;;;;;;;;;;;;7.27;65.06;93197.56;2039905;70;20051;-74
2022/03/17 02:02:08;;;;;;;;;;;;;;;6.81;67.35;93190.41;2041017;70;20055;-73
2022/03/17 02:04:35;;;;;;;;;;;;;;;7.21;64.01;93197.09;2040785;70;20092;-73
2022/03/17 02:07:02;;;;;;;;;;;;;;;7.19;64.39;93196.91;2042228;70;20055;-73
2022/03/17 02:09:27;;;;;;;;;;;;;;;7.21;64.60;93200.63;2040502;70;20134;-73
2022/03/17 02:14:50;;;;;;;;;;;;;;;7.22;62.34;93198.56;2037455;70;20520;-73
2022/03/17 02:17:16;;;;;;;;;;;;;;;7.16;64.23;93187.63;2037329;70;20047;-73
2022/03/17 02:19:42;;;;;;;;;;;;;;;7.29;61.39;93192.16;2037555;70;20424;-73
2022/03/17 02:22:10;;;;;;;;;;;;;;;7.23;63.07;93206.38;2037536;70;20432;-73
2022/03/17 02:27:20;;;;;;;;;;;;;;;7.29;62.91;93198.47;2037261;70;20501;-73
2022/03/17 02:29:46;;;;;;;;;;;;;;;7.11;64.96;93194.94;2037501;70;20054;-73
2022/03/17 02:32:11;;;;;;;;;;;;;;;7.18;63.77;93198.97;2037114;70;20062;-73
2022/03/17 02:34:38;;;;;;;;;;;;;;;7.05;65.73;93190.91;2036749;70;20489;-73
2022/03/17 02:37:03;;;;;;;;;;;;;;;7.09;65.29;93191.22;2036361;70;20087;-73
2022/03/17 02:39:29;;;;;;;;;;;;;;;7.19;63.98;93188.50;2036760;70;20103;-73
2022/03/17 02:41:55;;;;;;;;;;;;;;;6.72;66.20;93191.03;2037624;70;20115;-73
2022/03/17 02:44:21;;;;;;;;;;;;;;;6.83;65.58;93187.78;2036808;70;20116;-73
2022/03/17 02:46:46;;;;;;;;;;;;;;;6.94;64.94;93203.34;2036765;70;20072;-74
2022/03/17 02:49:15;;;;;;;;;;;;;;;7.05;63.84;93196.50;2037472;70;20158;-73
2022/03/17 02:51:41;;;;;;;;;;;;;;;7.06;62.46;93195.19;2037221;70;20056;-73
2022/03/17 02:54:06;;;;;;;;;;;;;;;7.01;63.75;93198.97;2037544;70;20048;-73
2022/03/17 02:56:33;;;;;;;;;;;;;;;7.02;64.35;93206.81;2036942;70;20064;-73
2022/03/17 02:58:58;;;;;;;;;;;;;;;6.98;64.97;93202.94;2036776;70;20513;-72
2022/03/17 03:01:24;;;;;;;;;;;;;;;6.94;64.98;93191.41;2037033;70;20103;-72
2022/03/17 03:03:49;;;;;;;;;;;;;;;6.77;65.62;93195.66;2037114;70;20047;-73
2022/03/17 03:06:15;;;;;;;;;;;;;;;6.83;65.26;93198.97;2037703;70;20143;-73
2022/03/17 03:08:41;;;;;;;;;;;;;;;6.91;65.38;93203.75;2038071;70;20473;-73
2022/03/17 03:11:06;;;;;;;;;;;;;;;6.78;64.49;93199.19;2038060;70;20147;-73
2022/03/17 03:13:31;;;;;;;;;;;;;;;6.70;65.74;93207.69;2038154;70;20052;-72
2022/03/17 03:15:57;;;;;;;;;;;;;;;6.74;65.28;93208.00;2038097;70;20052;-74
2022/03/17 03:18:22;;;;;;;;;;;;;;;6.80;64.81;93202.19;2038042;70;20115;-74
2022/03/17 03:20:48;;;;;;;;;;;;;;;6.69;65.50;93203.41;2037981;70;20477;-74
2022/03/17 03:23:13;;;;;;;;;;;;;;;6.65;65.03;93199.53;2038026;70;20098;-73
2022/03/17 03:25:39;;;;;;;;;;;;;;;6.78;63.19;93205.56;2038223;70;20044;-73
2022/03/17 03:28:05;;;;;;;;;;;;;;;6.78;64.25;93208.34;2038320;70;20401;-73
2022/03/17 03:30:32;;;;;;;;;;;;;;;6.74;65.19;93215.66;2038088;70;20592;-73
2022/03/17 03:32:58;;;;;;;;;;;;;;;6.69;64.77;93213.84;2038243;70;20056;-73
2022/03/17 03:38:08;;;;;;;;;;;;;;;6.76;64.62;93218.63;2038403;70;20051;-73
2022/03/17 03:40:33;;;;;;;;;;;;;;;6.65;65.04;93224.72;2037546;70;20067;-73
2022/03/17 03:42:59;;;;;;;;;;;;;;;6.61;65.05;93227.91;2038134;70;20074;-73
2022/03/17 03:45:25;;;;;;;;;;;;;;;6.65;64.40;93230.31;2037996;70;20051;-73
2022/03/17 03:47:51;;;;;;;;;;;;;;;6.58;65.06;93231.84;2038162;70;20053;-73
2022/03/17 03:50:17;;;;;;;;;;;;;;;6.45;65.22;93230.06;2038240;70;20087;-73
2022/03/17 03:52:43;;;;;;;;;;;;;;;6.47;64.97;93223.94;2038141;70;20159;-73
2022/03/17 03:55:09;;;;;;;;;;;;;;;6.52;63.38;93228.53;2038043;70;20047;-73
2022/03/17 03:57:35;;;;;;;;;;;;;;;6.43;64.86;93231.97;2037945;70;20067;-73
2022/03/17 04:00:00;;;;;;;;;;;;;;;6.38;65.03;93239.28;2038159;70;20051;-73
2022/03/17 04:02:26;;;;;;;;;;;;;;;6.30;65.70;93233.00;2038122;70;20048;-73
2022/03/17 04:04:51;;;;;;;;;;;;;;;6.38;64.77;93230.16;2037983;70;20443;-73
2022/03/17 04:07:18;;;;;;;;;;;;;;;6.35;64.46;93234.81;2037492;70;20051;-73
2022/03/17 04:09:43;;;;;;;;;;;;;;;6.49;63.11;93244.41;2038290;70;20235;-73
2022/03/17 04:12:10;;;;;;;;;;;;;;;6.50;63.65;93245.88;2037602;70;20139;-72
2022/03/17 04:14:36;;;;;;;;;;;;;;;6.36;64.83;93244.69;2037860;70;20052;-72
2022/03/17 04:17:02;;;;;;;;;;;;;;;6.33;64.31;93240.25;2037814;70;20495;-72
2022/03/17 04:19:28;;;;;;;;;;;;;;;6.17;65.55;93244.44;2037983;70;20100;-72
2022/03/17 04:21:54;;;;;;;;;;;;;;;6.16;65.89;93240.91;2037489;70;20087;-73
2022/03/17 04:24:20;;;;;;;;;;;;;;;6.11;66.36;93247.47;2038060;70;20086;-72
2022/03/17 04:26:46;;;;;;;;;;;;;;;6.32;64.48;93253.50;2038170;70;20489;-73
2022/03/17 04:29:12;;;;;;;;;;;;;;;6.20;65.10;93255.25;2038104;70;20466;-73
2022/03/17 04:31:38;;;;;;;;;;;;;;;6.01;66.25;93252.19;2037983;70;20056;-73
2022/03/17 04:34:04;;;;;;;;;;;;;;;6.10;66.16;93259.97;2037451;70;20098;-74
2022/03/17 04:36:31;;;;;;;;;;;;;;;6.25;64.50;93262.66;2037804;70;20052;-73
2022/03/17 04:38:57;;;;;;;;;;;;;;;6.26;65.50;93263.41;2037981;70;20119;-72
2022/03/17 04:41:22;;;;;;;;;;;;;;;6.27;64.81;93260.03;2037870;70;20067;-72
2022/03/17 04:43:48;;;;;;;;;;;;;;;6.16;65.65;93268.13;2039844;70;20055;-72
2022/03/17 04:46:14;;;;;;;;;;;;;;;6.23;64.93;93265.31;2038098;70;20151;-72
2022/03/17 04:48:39;;;;;;;;;;;;;;;6.36;64.33;93262.19;2037518;70;20521;-72
2022/03/17 04:51:05;;;;;;;;;;;;;;;6.36;64.20;93261.47;2037914;70;20222;-72
2022/03/17 04:53:32;;;;;;;;;;;;;;;6.23;65.70;93262.50;2037817;70;20120;-73
2022/03/17 04:55:57;;;;;;;;;;;;;;;6.29;66.18;93253.88;2038154;70;20050;-73
2022/03/17 04:58:23;;;;;;;;;;;;;;;6.29;65.30;93256.69;2038007;70;20091;-73
2022/03/17 05:00:48;;;;;;;;;;;;;;;6.31;65.30;93262.44;2037989;70;20416;-73
2022/03/17 05:03:14;;;;;;;;;;;;;;;6.18;65.86;93266.25;2038105;70;20166;-72
2022/03/17 05:05:40;;;;;;;;;;;;;;;6.25;65.93;93264.72;2038120;70;20048;-73
2022/03/17 05:08:06;;;;;;;;;;;;;;;6.24;65.81;93272.38;2038190;70;20048;-73
2022/03/17 05:10:35;;;;;;;;;;;;;;;6.19;64.97;93272.59;2038067;70;20055;-73
2022/03/17 05:13:02;;;;;;;;;;;;;;;6.30;62.88;93275.69;2038088;70;20146;-73
2022/03/17 05:15:28;;;;;;;;;;;;;;;6.19;64.68;93281.00;2037944;70;20051;-72
2022/03/17 05:17:53;;;;;;;;;;;;;;;6.25;64.92;93279.44;2038166;70;20071;-73
2022/03/17 05:20:19;;;;;;;;;;;;;;;6.09;65.54;93280.84;2038281;70;20056;-73
2022/03/17 05:22:46;;;;;;;;;;;;;;;6.14;65.47;93270.75;2037678;70;20481;-73
2022/03/17 05:25:11;;;;;;;;;;;;;;;6.21;64.93;93275.56;2038146;70;20152;-73
2022/03/17 05:27:41;;;;;;;;;;;;;;;6.19;64.78;93278.19;2038030;70;20078;-73
2022/03/17 05:30:08;;;;;;;;;;;;;;;6.17;65.22;93275.22;2037372;70;20051;-73
2022/03/17 05:32:34;;;;;;;;;;;;;;;6.07;65.61;93273.03;2038154;70;20067;-74
2022/03/17 05:34:59;;;;;;;;;;;;;;;6.22;65.28;93277.03;2038129;70;20166;-73
2022/03/17 05:37:25;;;;;;;;;;;;;;;6.18;65.78;93283.00;2037990;70;20060;-74
2022/03/17 05:39:51;;;;;;;;;;;;;;;6.13;66.55;93283.97;2038037;70;20054;-74
2022/03/17 05:42:16;;;;;;;;;;;;;;;6.10;66.14;93282.34;2038005;70;20056;-73
2022/03/17 05:44:42;;;;;;;;;;;;;;;6.23;64.56;93290.47;2037938;70;20485;-73
2022/03/17 05:47:07;;;;;;;;;;;;;;;6.08;66.51;93282.88;2038238;70;20048;-73
2022/03/17 05:49:32;;;;;;;;;;;;;;;5.94;67.38;93286.50;2038294;70;20087;-73
2022/03/17 05:51:59;;;;;;;;;;;;;;;6.17;66.31;93283.59;2038085;70;20080;-73
2022/03/17 05:54:25;;;;;;;;;;;;;;;6.08;67.21;93282.16;2037909;70;20044;-73
2022/03/17 05:56:50;;;;;;;;;;;;;;;6.10;66.94;93279.53;2037958;70;20149;-73
2022/03/17 05:59:17;;;;;;;;;;;;;;;6.25;65.55;93287.81;2037293;70;20075;-73
2022/03/17 06:01:42;;;;;;;;;;;;;;;6.06;67.32;93290.38;2037927;70;20118;-73
2022/03/17 06:04:08;;;;;;;;;;;;;;;6.11;67.19;93287.34;2037955;70;20051;-73
2022/03/17 06:06:33;;;;;;;;;;;;;;;6.31;65.86;93291.13;2038067;70;20074;-73
2022/03/17 06:08:59;;;;;;;;;;;;;;;6.27;63.58;93287.25;2037956;70;20059;-72
2022/03/17 06:11:25;;;;;;;;;;;;;;;6.36;65.85;93284.56;2038056;70;20389;-73
2022/03/17 06:13:52;;;;;;;;;;;;;;;6.32;66.23;93281.47;2037929;70;20052;-73
2022/03/17 06:16:20;;;;;;;;;;;;;;;6.33;66.85;93282.19;2037343;70;20056;-73
2022/03/17 06:18:46;;;;;;;;;;;;;;;6.42;66.29;93280.84;2037924;70;20424;-73
2022/03/17 06:21:12;;;;;;;;;;;;;;;6.51;65.55;93291.41;2037879;70;20051;-74
2022/03/17 06:23:37;;;;;;;;;;;;;;;6.56;65.90;93290.44;2038009;70;20047;-73
2022/03/17 06:26:03;;;;;;;;;;;;;;;6.70;65.13;93282.50;2037934;70;20092;-73
2022/03/17 06:28:29;;;;;;;;;;;;;;;6.78;64.26;93297.13;2038000;70;20040;-73
2022/03/17 06:30:54;;;;;;;;;;;;;;;6.82;63.79;93303.81;2037775;70;20135;-73
2022/03/17 06:33:20;;;;;;;;;;;;;;;7.05;61.22;93300.81;2037883;70;20060;-73
2022/03/17 06:35:46;;;;;;;;;;;;;;;7.01;64.11;93297.72;2037936;70;20111;-73
2022/03/17 06:38:11;;;;;;;;;;;;;;;7.11;62.64;93304.16;2037851;70;20079;-73
2022/03/17 06:40:37;;;;;;;;;;;;;;;6.87;63.95;93319.66;2037952;70;20063;-73
2022/03/17 06:43:03;;;;;;;;;;;;;;;6.69;65.92;93314.56;2038363;70;20047;-73
2022/03/17 06:45:29;;;;;;;;;;;;;;;6.89;66.39;93310.69;2038261;70;20503;-73
2022/03/17 06:47:54;;;;;;;;;;;;;;;6.87;66.53;93319.66;2037854;70;20048;-73
2022/03/17 06:50:21;;;;;;;;;;;;;;;7.15;64.54;93323.34;2038438;70;20501;-73
2022/03/17 06:52:47;;;;;;;;;;;;;;;6.90;66.38;93317.03;2038377;70;20046;-73
2022/03/17 06:55:12;;;;;;;;;;;;;;;7.08;65.47;93321.34;2038315;70;20051;-73
2022/03/17 06:57:38;;;;;;;;;;;;;;;7.32;64.09;93322.59;2038318;70;20048;-73
2022/03/17 07:00:05;;;;;;;;;;;;;;;7.32;65.13;93319.81;2038198;70;20443;-73
2022/03/17 07:02:30;;;;;;;;;;;;;;;7.45;64.29;93324.34;2038323;70;20071;-73
2022/03/17 07:04:56;;;;;;;;;;;;;;;7.59;64.36;93329.06;2037781;70;20405;-73
2022/03/17 07:07:21;;;;;;;;;;;;;;;7.72;62.88;93327.25;2038364;70;20051;-73
2022/03/17 07:09:47;;;;;;;;;;;;;;;7.79;62.93;93334.81;2038408;70;20051;-73
2022/03/17 07:12:12;;;;;;;;;;;;;;;7.77;64.45;93335.41;2037931;70;20146;-73
2022/03/17 07:14:38;;;;;;;;;;;;;;;7.79;64.31;93338.38;2038359;70;20087;-73
2022/03/17 07:17:04;;;;;;;;;;;;;;;8.04;61.82;93337.53;2038350;70;20075;-72
2022/03/17 07:19:30;;;;;;;;;;;;;;;8.03;60.92;93338.84;2038316;70;20099;-73
2022/03/17 07:21:56;;;;;;;;;;;;;;;7.98;62.64;93343.41;2038555;70;20080;-73
2022/03/17 07:24:22;;;;;;;;;;;;;;;8.21;61.28;93339.56;2038267;70;20566;-73
2022/03/17 07:26:48;;;;;;;;;;;;;;;8.16;63.99;93341.31;2038314;70;20059;-72
2022/03/17 07:29:14;;;;;;;;;;;;;;;8.34;63.99;93337.16;2038363;70;20083;-73
2022/03/17 07:31:40;;;;;;;;;;;;;;;8.56;60.72;93340.97;2038291;70;20195;-73
2022/03/17 07:34:05;;;;;;;;;;;;;;;8.60;60.58;93349.72;2037753;70;20624;-73
2022/03/17 07:36:31;;;;;;;;;;;;;;;8.78;61.20;93338.44;2040364;70;20048;-73
2022/03/17 07:38:57;;;;;;;;;;;;;;;8.68;62.74;93343.25;2038311;70;20056;-73
2022/03/17 07:41:23;;;;;;;;;;;;;;;8.91;61.00;93346.47;2038239;70;20150;-73
2022/03/17 07:43:48;;;;;;;;;;;;;;;9.19;57.02;93345.09;2038246;70;20561;-73
2022/03/17 07:46:32;;;;;;;;;;;;;;;9.29;57.80;93342.28;2037871;70;20060;-73
2022/03/17 07:49:20;;;;;;;;;;;;;;;9.41;59.24;93348.84;2040447;70;20481;-73
2022/03/17 07:51:47;;;;;;;;;;;;;;;9.48;60.47;93350.03;2037609;70;20131;-73
2022/03/17 07:54:12;;;;;;;;;;;;;;;9.54;56.91;93354.06;2038175;70;20140;-73
2022/03/17 07:56:41;;;;;;;;;;;;;;;9.72;56.80;93348.31;2038144;70;20051;-73
2022/03/17 07:59:07;;;;;;;;;;;;;;;9.85;57.52;93343.00;2038046;70;20044;-73
2022/03/17 08:01:33;;;;;;;;;;;;;;;9.95;56.30;93353.50;2038262;70;20119;-74
2022/03/17 08:03:58;;;;;;;;;;;;;;;10.03;56.51;93342.81;2038357;70;20056;-72
2022/03/17 08:06:26;;;;;;;;;;;;;;;10.06;56.04;93338.84;2037683;70;20158;-72
2022/03/17 08:08:52;;;;;;;;;;;;;;;10.25;56.49;93335.28;2038211;70;20477;-72
2022/03/17 08:11:17;;;;;;;;;;;;;;;10.43;55.01;93339.41;2038182;70;20048;-71
2022/03/17 08:13:43;;;;;;;;;;;;;;;10.27;56.44;93343.91;2038221;70;20167;-72
2022/03/17 08:16:10;;;;;;;;;;;;;;;10.62;55.99;93338.63;2038178;70;20108;-74
2022/03/17 08:18:36;;;;;;;;;;;;;;;10.43;56.59;93336.59;2038218;70;20154;-73
2022/03/17 08:21:02;;;;;;;;;;;;;;;10.72;54.47;93335.78;2038154;70;20504;-73
2022/03/17 08:23:28;;;;;;;;;;;;;;;10.59;53.82;93337.03;2038285;70;20050;-74
2022/03/17 08:25:53;;;;;;;;;;;;;;;10.62;52.42;93335.81;2037654;70;20497;-73
2022/03/17 08:28:19;;;;;;;;;;;;;;;10.74;52.42;93342.31;2038202;70;20504;-73
2022/03/17 08:30:48;;;;;;;;;;;;;;;10.92;51.74;93335.16;2038180;70;20044;-74
2022/03/17 08:33:14;;;;;;;;;;;;;;;10.83;54.44;93338.00;2038277;70;20063;-75
2022/03/17 08:35:40;;;;;;;;;;;;;;;11.06;52.65;93332.56;2037675;70;20119;-77
2022/03/17 08:38:06;;;;;;;;;;;;;;;11.36;52.22;93331.09;2038114;70;20059;-74
2022/03/17 08:40:32;;;;;;;;;;;;;;;11.52;52.91;93331.44;2038139;70;20063;-74
2022/03/17 08:42:57;;;;;;;;;;;;;;;10.91;54.83;93335.75;2038160;70;20082;-73
2022/03/17 08:50:51;;;;;;;;;;;;;;;11.60;52.30;93337.63;2038348;70;20464;-74
2022/03/17 08:53:16;;;;;;;;;;;;;;;11.71;51.57;93336.97;2037660;70;20163;-73
2022/03/17 08:55:42;;;;;;;;;;;;;;;11.58;52.44;93329.03;2038099;70;20051;-74
2022/03/17 08:58:08;;;;;;;;;;;;;;;11.97;50.45;93340.09;2038045;70;20044;-74
2022/03/17 09:00:36;;;;;;;;;;;;;;;12.20;50.77;93340.19;2037974;70;20071;-73
2022/03/17 09:03:03;;;;;;;;;;;;;;;12.36;51.27;93339.75;2037987;70;20063;-73
2022/03/17 09:05:30;;;;;;;;;;;;;;;12.52;50.03;93340.06;2038062;70;20150;-74
2022/03/17 09:07:56;;;;;;;;;;;;;;;12.23;50.50;93338.22;2038160;70;20052;-73
2022/03/17 09:10:23;;;;;;;;;;;;;;;12.71;49.44;93345.53;2038097;70;20051;-73
2022/03/17 09:12:48;;;;;;;;;;;;;;;12.81;48.66;93342.59;2038180;70;20135;-73
2022/03/17 09:15:14;;;;;;;;;;;;;;;12.65;48.21;93345.16;2037970;70;20167;-73
2022/03/17 09:17:43;;;;;;;;;;;;;;;12.91;49.26;93346.06;2037537;70;20496;-73
2022/03/17 09:20:12;;;;;;;;;;;;;;;13.06;48.07;93339.22;2038178;70;20047;-73
2022/03/17 09:22:40;;;;;;;;;;;;;;;12.96;47.12;93334.38;2038328;70;20055;-72
2022/03/17 09:25:07;;;;;;;;;;;;;;;12.76;48.14;93329.56;2038065;70;20120;-73
2022/03/17 09:27:32;;;;;;;;;;;;;;;13.25;46.98;93335.44;2038056;70;20085;-73
2022/03/17 09:29:58;;;;;;;;;;;;;;;13.49;46.51;93345.41;2037937;70;20421;-74
2022/03/17 09:32:24;;;;;;;;;;;;;;;13.40;45.88;93338.50;2038055;70;20050;-74
2022/03/17 09:34:50;;;;;;;;;;;;;;;13.69;45.37;93340.94;2038159;70;20048;-73
2022/03/17 09:37:17;;;;;;;;;;;;;;;13.86;45.46;93336.25;2038096;70;20131;-72
2022/03/17 09:39:46;;;;;;;;;;;;;;;14.16;45.23;93342.94;2038045;70;20131;-73
2022/03/17 09:42:14;;;;;;;;;;;;;;;14.43;45.10;93339.50;2038361;70;20048;-73
2022/03/17 09:44:39;;;;;;;;;;;;;;;14.22;44.44;93340.47;2037903;70;20056;-73
2022/03/17 09:47:09;;;;;;;;;;;;;;;14.52;43.14;93332.25;2037467;70;20115;-73
2022/03/17 09:49:36;;;;;;;;;;;;;;;14.61;43.33;93332.06;2037938;70;20119;-74
2022/03/17 09:52:05;;;;;;;;;;;;;;;14.41;43.98;93328.81;2038025;70;20048;-73
2022/03/17 09:54:35;;;;;;;;;;;;;;;14.26;43.81;93331.47;2037910;70;20048;-73
2022/03/17 09:57:00;;;;;;;;;;;;;;;14.73;44.03;93335.59;2038018;70;20050;-73
2022/03/17 09:59:26;;;;;;;;;;;;;;;14.51;43.99;93333.59;2037715;70;20045;-74
2022/03/17 10:01:51;;;;;;;;;;;;;;;14.95;43.85;93336.09;2037791;70;20480;-73
2022/03/17 10:04:18;;;;;;;;;;;;;;;14.60;43.66;93329.88;2040082;70;20413;-73
2022/03/17 10:06:43;;;;;;;;;;;;;;;14.49;43.94;93326.47;2037948;70;20078;-74
2022/03/17 10:09:09;;;;;;;;;;;;;;;14.95;43.97;93329.69;2038028;70;20469;-73
2022/03/17 10:11:37;;;;;;;;;;;;;;;15.33;43.59;93335.97;2037948;70;20155;-73
2022/03/17 10:14:05;;;;;;;;;;;;;;;15.53;43.12;93331.34;2037939;70;20050;-73
2022/03/17 10:16:31;;;;;;;;;;;;;;;14.97;42.93;93333.34;2038296;70;20079;-74
2022/03/17 10:19:00;;;;;;;;;;;;;;;15.04;42.83;93340.09;2038429;70;20059;-74
2022/03/17 10:21:28;;;;;;;;;;;;;;;15.05;43.28;93335.16;2038433;70;20637;-75
2022/03/17 10:24:04;;;;;;;;;;;;;;;14.93;42.00;93341.63;2038412;70;20055;-74
2022/03/17 10:26:39;;;;;;;;;;;;;;;15.13;42.13;93336.34;2038403;70;20071;-74
2022/03/17 10:29:12;;;;;;;;;;;;;;;14.82;43.10;93338.88;2038265;70;20076;-74
2022/03/17 10:31:56;;;;;;;;;;;;;;;15.19;42.06;93333.81;2038380;70;20078;-74
2022/03/17 10:34:29;;;;;;;;;;;;;;;15.08;42.11;93339.59;2037854;70;20044;-73
2022/03/17 10:37:15;;;;;;;;;;;;;;;15.33;42.16;93333.13;2038493;70;20072;-73
2022/03/17 10:39:47;;;;;;;;;;;;;;;15.49;41.54;93334.72;2038441;70;20048;-74
2022/03/17 10:42:17;;;;;;;;;;;;;;;15.13;42.59;93344.13;2038569;70;20040;-73
2022/03/17 10:45:05;;;;;;;;;;;;;;;15.23;42.48;93341.81;2038284;70;20051;-73
2022/03/17 10:47:30;;;;;;;;;;;;;;;15.33;41.96;93333.84;2038381;70;20119;-73
2022/03/17 10:50:00;;;;;;;;;;;;;;;15.26;42.48;93337.75;2038376;70;20060;-73
2022/03/17 10:52:25;;;;;;;;;;;;;;;15.10;42.81;93343.25;2038363;70;20052;-74
2022/03/17 10:54:57;;;;;;;;;;;;;;;15.13;43.15;93344.84;2038384;70;20135;-74
2022/03/17 10:57:25;;;;;;;;;;;;;;;15.64;42.82;93344.00;2038342;70;20054;-74
2022/03/17 10:59:53;;;;;;;;;;;;;;;15.70;42.39;93341.47;2040326;70;20040;-74
2022/03/17 11:02:24;;;;;;;;;;;;;;;15.16;43.19;93346.41;2038278;70;20056;-73
2022/03/17 11:04:50;;;;;;;;;;;;;;;15.78;42.93;93341.91;2038372;70;20086;-73
2022/03/17 11:07:19;;;;;;;;;;;;;;;16.33;41.62;93338.25;2037801;70;20832;-74
2022/03/17 11:09:46;;;;;;;;;;;;;;;15.90;41.38;93344.66;2037940;70;20412;-74
2022/03/17 11:12:17;;;;;;;;;;;;;;;16.08;41.44;93336.28;2038396;70;20047;-73
2022/03/17 11:14:46;;;;;;;;;;;;;;;15.72;42.39;93333.09;2038142;70;20087;-73
2022/03/17 11:17:14;;;;;;;;;;;;;;;15.62;41.85;93329.66;2038599;70;20063;-73
2022/03/17 11:19:43;;;;;;;;;;;;;;;15.89;42.37;93337.47;2038263;70;20056;-73
2022/03/17 11:22:13;;;;;;;;;;;;;;;15.72;42.04;93336.66;2037659;70;20044;-73
2022/03/17 11:24:39;;;;;;;;;;;;;;;15.62;42.58;93327.56;2038232;70;20063;-73
2022/03/17 11:27:12;;;;;;;;;;;;;;;15.52;42.81;93330.59;2040387;70;20070;-75
2022/03/17 11:29:38;;;;;;;;;;;;;;;15.62;42.83;93330.41;2038045;70;20115;-74
2022/03/17 11:32:08;;;;;;;;;;;;;;;15.42;42.85;93323.66;2038098;70;20107;-74
2022/03/17 11:34:48;;;;;;;;;;;;;;;15.80;42.93;93330.63;2040430;70;20139;-76
2022/03/17 11:37:19;;;;;;;;;;;;;;;15.34;42.94;93323.97;2040334;70;20485;-74
2022/03/17 11:40:03;;;;;;;;;;;;;;;15.32;43.28;93320.31;2038243;70;20540;-74
2022/03/17 11:42:32;;;;;;;;;;;;;;;15.12;43.57;93322.78;2037661;70;20428;-74
2022/03/17 11:45:21;;;;;;;;;;;;;;;15.18;43.70;93318.19;2038047;70;20528;-73
2022/03/17 11:47:50;;;;;;;;;;;;;;;15.48;43.58;93318.31;2037141;70;20045;-74
2022/03/17 11:50:24;;;;;;;;;;;;;;;15.31;43.48;93316.72;2040351;70;20079;-74
2022/03/17 11:52:55;;;;;;;;;;;;;;;14.92;43.92;93316.75;2038188;70;20132;-74
2022/03/17 11:55:37;;;;;;;;;;;;;;;15.20;43.64;93314.72;2038143;70;20100;-74
2022/03/17 11:58:23;;;;;;;;;;;;;;;15.56;42.81;93318.00;2038700;70;20063;-73
2022/03/17 12:01:04;;;;;;;;;;;;;;;15.27;43.27;93310.84;2038049;70;20048;-73
2022/03/17 12:03:38;;;;;;;;;;;;;;;15.54;43.02;93306.56;2038263;70;20120;-72
2022/03/17 12:06:15;;;;;;;;;;;;;;;15.83;42.61;93306.66;2039038;70;20060;-72
2022/03/17 12:08:48;;;;;;;;;;;;;;;15.52;43.05;93299.41;2038920;70;20051;-73
2022/03/17 12:11:15;;;;;;;;;;;;;;;15.85;42.72;93306.78;2038151;70;20051;-72
2022/03/17 12:13:41;;;;;;;;;;;;;;;15.51;43.05;93303.59;2038000;70;20052;-72
2022/03/17 12:16:07;;;;;;;;;;;;;;;15.55;42.75;93305.91;2038120;70;20052;-73
2022/03/17 12:18:51;;;;;;;;;;;;;;;15.80;43.16;93307.94;2037996;70;20068;-73
2022/03/17 12:21:16;;;;;;;;;;;;;;;15.93;42.43;93303.59;2038176;70;20116;-72
2022/03/17 12:23:43;;;;;;;;;;;;;;;15.87;41.86;93298.38;2037632;70;20056;-72
2022/03/17 12:26:08;;;;;;;;;;;;;;;15.41;41.90;93303.09;2038076;70;20044;-72
2022/03/17 12:28:41;;;;;;;;;;;;;;;15.25;42.12;93305.03;2038158;70;20131;-72
2022/03/17 12:31:06;;;;;;;;;;;;;;;15.31;42.72;93298.97;2038192;70;20055;-72
2022/03/17 12:33:32;;;;;;;;;;;;;;;15.36;42.21;93307.06;2037472;70;20044;-76
2022/03/17 12:36:04;;;;;;;;;;;;;;;15.57;42.24;93313.78;2038130;70;20060;-73
2022/03/17 12:38:30;;;;;;;;;;;;;;;15.37;42.06;93308.53;2037924;70;20048;-75
2022/03/17 12:40:56;;;;;;;;;;;;;;;15.53;42.11;93308.63;2038079;70;20059;-78
2022/03/17 12:43:22;;;;;;;;;;;;;;;15.47;42.26;93311.16;2038062;70;20068;-75
2022/03/17 12:45:49;;;;;;;;;;;;;;;15.54;42.31;93315.81;2037841;70;20148;-74
2022/03/17 12:48:16;;;;;;;;;;;;;;;15.66;41.94;93310.78;2038014;70;20087;-72
2022/03/17 12:50:42;;;;;;;;;;;;;;;15.54;41.83;93320.75;2038143;70;20044;-72
2022/03/17 12:53:08;;;;;;;;;;;;;;;15.38;42.67;93309.28;2038005;70;20054;-72
2022/03/17 12:55:34;;;;;;;;;;;;;;;15.49;42.00;93314.88;2038067;70;20443;-71
2022/03/17 12:58:04;;;;;;;;;;;;;;;15.61;42.33;93309.06;2037425;70;20060;-72
2022/03/17 13:00:29;;;;;;;;;;;;;;;15.17;42.83;93313.16;2038016;70;20068;-73
2022/03/17 13:02:56;;;;;;;;;;;;;;;15.61;42.36;93311.16;2037112;70;20436;-74
2022/03/17 13:08:07;;;;;;;;;;;;;;;15.69;42.37;93306.69;2037882;70;20052;-73